createdAt,value
2017-12-03T00:02:17.689Z,18.53
2017-12-03T00:04:45.193Z,21.73
2017-12-03T00:07:12.657Z,21.13
2017-12-03T00:09:40.144Z,20.30
2017-12-03T00:12:07.614Z,21.17
2017-12-03T00:14:35.160Z,20.53
2017-12-03T00:17:02.642Z,20.80
2017-12-03T00:19:30.133Z,20.43
2017-12-03T00:21:57.675Z,20.70
2017-12-03T00:24:25.236Z,20.80
2017-12-03T00:26:52.713Z,22.33
2017-12-03T00:29:21.152Z,22.90
2017-12-03T00:31:48.626Z,16.37
2017-12-03T00:34:16.113Z,15.03
2017-12-03T00:36:43.580Z,13.87
2017-12-03T00:39:11.108Z,16.13
2017-12-03T00:41:38.581Z,15.83
2017-12-03T00:44:06.073Z,16.13
2017-12-03T00:46:33.549Z,15.63
2017-12-03T00:49:01.041Z,16.43
2017-12-03T00:51:28.508Z,17.57
2017-12-03T00:53:55.999Z,16.30
2017-12-03T00:56:23.469Z,14.60
2017-12-03T00:58:50.961Z,14.23
2017-12-03T01:01:18.440Z,14.77
2017-12-03T01:03:45.928Z,14.27
2017-12-03T01:06:13.393Z,14.63
2017-12-03T01:08:40.876Z,15.30
2017-12-03T01:11:08.349Z,18.73
2017-12-03T01:13:35.832Z,17.87
2017-12-03T01:16:03.301Z,16.67
2017-12-03T01:18:30.797Z,17.47
2017-12-03T01:20:58.281Z,17.90
2017-12-03T01:23:25.760Z,18.13
2017-12-03T01:25:53.245Z,19.60
2017-12-03T01:28:20.722Z,18.73
2017-12-03T01:30:48.209Z,18.80
2017-12-03T01:33:15.685Z,19.67
2017-12-03T01:35:43.236Z,18.57
2017-12-03T01:38:10.709Z,16.87
2017-12-03T01:40:38.816Z,16.53
2017-12-03T01:43:06.285Z,17.20
2017-12-03T01:45:33.781Z,17.03
2017-12-03T01:48:01.342Z,16.50
2017-12-03T01:50:28.834Z,16.60
2017-12-03T01:52:56.305Z,16.80
2017-12-03T01:55:23.801Z,18.17
2017-12-03T01:57:51.273Z,18.87
2017-12-03T02:00:18.744Z,20.37
2017-12-03T02:02:46.233Z,18.47
2017-12-03T02:05:13.748Z,20.70
2017-12-03T02:07:41.307Z,19.93
2017-12-03T02:10:08.797Z,20.50
2017-12-03T02:12:36.269Z,20.83
2017-12-03T02:15:03.762Z,20.40
2017-12-03T02:17:31.233Z,21.43
2017-12-03T02:19:58.704Z,22.43
2017-12-03T02:22:26.192Z,22.30
2017-12-03T02:24:53.705Z,20.10
2017-12-03T02:27:21.272Z,21.10
2017-12-03T02:29:48.746Z,22.93
2017-12-03T02:32:16.237Z,22.57
2017-12-03T02:34:43.793Z,18.77
2017-12-03T02:37:11.261Z,20.10
2017-12-03T02:39:38.769Z,20.83
2017-12-03T02:42:06.232Z,20.00
2017-12-03T02:44:33.798Z,20.40
2017-12-03T02:47:01.276Z,18.37
2017-12-03T02:49:29.998Z,19.87
2017-12-03T02:51:57.468Z,19.20
2017-12-03T02:54:24.935Z,17.83
2017-12-03T02:56:52.424Z,19.07
2017-12-03T02:59:19.901Z,17.97
2017-12-03T03:01:47.390Z,19.77
2017-12-03T03:04:14.869Z,18.03
2017-12-03T03:06:42.538Z,19.53
2017-12-03T03:09:10.008Z,19.13
2017-12-03T03:11:37.473Z,18.87
2017-12-03T03:14:04.961Z,20.37
2017-12-03T03:16:32.429Z,19.33
2017-12-03T03:18:59.913Z,18.20
2017-12-03T03:21:27.388Z,18.67
2017-12-03T03:23:54.944Z,17.83
2017-12-03T03:26:22.411Z,19.03
2017-12-03T03:28:49.885Z,19.30
2017-12-03T03:31:18.121Z,18.87
2017-12-03T03:33:45.604Z,17.23
2017-12-03T03:36:13.097Z,17.50
2017-12-03T03:38:40.565Z,16.43
2017-12-03T03:41:08.058Z,16.47
2017-12-03T03:43:35.533Z,16.90
2017-12-03T03:46:03.001Z,17.40
2017-12-03T03:48:30.627Z,16.23
2017-12-03T03:50:58.104Z,17.50
2017-12-03T03:53:25.593Z,15.90
2017-12-03T03:55:53.061Z,16.37
2017-12-03T03:58:20.556Z,14.60
2017-12-03T04:00:48.020Z,15.43
2017-12-03T04:03:15.497Z,15.63
2017-12-03T04:05:42.980Z,15.47
2017-12-03T04:08:10.505Z,15.57
2017-12-03T04:10:37.977Z,14.60
2017-12-03T04:13:05.470Z,15.33
2017-12-03T04:15:32.936Z,15.30
2017-12-03T04:18:00.442Z,15.00
2017-12-03T04:20:27.912Z,14.17
2017-12-03T04:22:55.376Z,15.10
2017-12-03T04:25:22.856Z,14.67
2017-12-03T04:27:50.329Z,14.20
2017-12-03T04:30:17.812Z,15.17
2017-12-03T04:32:45.281Z,15.13
2017-12-03T04:35:12.779Z,14.83
2017-12-03T04:37:40.256Z,15.10
2017-12-03T04:40:07.745Z,15.50
2017-12-03T04:42:35.217Z,14.87
2017-12-03T04:45:02.700Z,16.40
2017-12-03T04:47:30.165Z,16.40
2017-12-03T04:49:57.666Z,15.90
2017-12-03T04:52:25.141Z,15.50
2017-12-03T04:54:53.012Z,14.87
2017-12-03T04:57:20.488Z,14.97
2017-12-03T04:59:48.009Z,16.73
2017-12-03T05:02:15.501Z,15.07
2017-12-03T05:04:42.986Z,15.20
2017-12-03T05:07:10.465Z,15.13
2017-12-03T05:09:37.957Z,15.03
2017-12-03T05:12:05.429Z,14.33
2017-12-03T05:14:32.897Z,14.80
2017-12-03T05:17:00.389Z,14.43
2017-12-03T05:19:27.889Z,15.00
2017-12-03T05:21:55.361Z,15.20
2017-12-03T05:24:22.849Z,16.57
2017-12-03T05:26:50.405Z,15.87
2017-12-03T05:29:17.876Z,15.13
2017-12-03T05:31:45.361Z,16.20
2017-12-03T05:34:12.833Z,17.40
2017-12-03T05:36:40.306Z,15.67
2017-12-03T05:39:07.789Z,16.63
2017-12-03T05:41:35.263Z,16.17
2017-12-03T05:44:03.005Z,16.73
2017-12-03T05:46:30.541Z,15.53
2017-12-03T05:48:58.091Z,16.10
2017-12-03T05:51:25.568Z,15.23
2017-12-03T05:53:53.209Z,16.07
2017-12-03T05:56:20.728Z,15.77
2017-12-03T05:58:48.196Z,15.77
2017-12-03T06:01:15.858Z,15.30
2017-12-03T06:03:43.332Z,16.07
2017-12-03T06:06:10.815Z,15.57
2017-12-03T06:08:38.324Z,14.43
2017-12-03T06:11:06.968Z,16.83
2017-12-03T06:13:34.432Z,15.87
2017-12-03T06:16:01.905Z,15.03
2017-12-03T06:18:29.393Z,17.63
2017-12-03T06:20:57.055Z,16.30
2017-12-03T06:23:24.528Z,16.30
2017-12-03T06:25:52.017Z,16.53
2017-12-03T06:28:19.494Z,15.63
2017-12-03T06:30:46.960Z,18.10
2017-12-03T06:33:14.457Z,18.00
2017-12-03T06:35:42.037Z,18.50
2017-12-03T06:38:09.640Z,17.90
2017-12-03T06:40:37.133Z,17.23
2017-12-03T06:43:04.600Z,16.60
2017-12-03T06:45:32.073Z,17.23
2017-12-03T06:47:59.566Z,17.43
2017-12-03T06:50:27.034Z,15.60
2017-12-03T06:52:54.496Z,17.10
2017-12-03T06:55:21.980Z,17.20
2017-12-03T06:57:49.445Z,17.47
2017-12-03T07:00:16.921Z,18.03
2017-12-03T07:02:44.410Z,17.03
2017-12-03T07:05:11.876Z,17.77
2017-12-03T07:07:39.349Z,17.47
2017-12-03T07:10:06.837Z,19.13
2017-12-03T07:12:34.329Z,17.37
2017-12-03T07:15:01.804Z,18.67
2017-12-03T07:17:29.288Z,17.63
2017-12-03T07:19:56.764Z,18.43
2017-12-03T07:22:24.257Z,16.80
2017-12-03T07:24:51.726Z,19.30
2017-12-03T07:27:19.217Z,18.57
2017-12-03T07:29:46.698Z,19.50
2017-12-03T07:32:14.389Z,19.07
2017-12-03T07:34:41.909Z,18.67
2017-12-03T07:37:09.400Z,18.37
2017-12-03T07:39:36.870Z,18.40
2017-12-03T07:42:04.418Z,18.60
2017-12-03T07:44:31.889Z,18.43
2017-12-03T07:46:59.412Z,16.60
2017-12-03T07:49:26.984Z,17.00
2017-12-03T07:51:54.526Z,16.50
2017-12-03T07:54:22.001Z,17.37
2017-12-03T07:56:49.525Z,17.33
2017-12-03T07:59:17.022Z,16.37
2017-12-03T08:01:44.509Z,16.53
2017-12-03T08:04:11.991Z,18.00
2017-12-03T08:06:39.577Z,16.53
2017-12-03T08:09:07.049Z,17.90
2017-12-03T08:11:34.528Z,17.30
2017-12-03T08:14:02.021Z,16.97
2017-12-03T08:16:29.516Z,17.77
2017-12-03T08:18:56.988Z,18.43
2017-12-03T08:21:24.476Z,17.87
2017-12-03T08:23:51.948Z,18.07
2017-12-03T08:26:19.432Z,17.33
2017-12-03T08:28:46.901Z,17.77
2017-12-03T08:31:14.393Z,20.17
2017-12-03T08:33:41.864Z,17.03
2017-12-03T08:36:09.352Z,17.27
2017-12-03T08:38:36.824Z,16.10
2017-12-03T08:41:04.314Z,14.47
2017-12-03T08:43:31.785Z,15.03
2017-12-03T08:45:59.273Z,17.67
2017-12-03T08:48:26.744Z,17.63
2017-12-03T08:50:54.284Z,14.73
2017-12-03T08:53:21.771Z,15.07
2017-12-03T08:55:49.266Z,14.80
2017-12-03T08:58:16.732Z,15.90
2017-12-03T09:00:44.224Z,15.30
2017-12-03T09:03:11.693Z,16.50
2017-12-03T09:05:39.183Z,14.60
2017-12-03T09:08:06.657Z,15.40
2017-12-03T09:10:34.142Z,13.50
2017-12-03T09:13:01.609Z,14.13
2017-12-03T09:15:29.085Z,12.37
2017-12-03T09:17:56.589Z,12.90
2017-12-03T09:20:24.065Z,13.97
2017-12-03T09:22:51.541Z,13.60
2017-12-03T09:25:19.869Z,13.60
2017-12-03T09:27:47.377Z,15.07
2017-12-03T09:30:14.845Z,14.20
2017-12-03T09:32:42.335Z,14.23
2017-12-03T09:35:09.901Z,15.80
2017-12-03T09:37:42.865Z,16.03
2017-12-03T09:40:12.163Z,13.70
2017-12-03T09:42:46.889Z,13.73
2017-12-03T09:45:41.307Z,12.73
2017-12-03T09:48:17.022Z,14.47
2017-12-03T09:51:02.198Z,13.20
2017-12-03T09:53:39.197Z,13.63
2017-12-03T09:56:20.662Z,14.03
2017-12-03T10:01:47.318Z,14.33
2017-12-03T10:04:19.484Z,15.37
2017-12-03T10:06:47.169Z,15.53
2017-12-03T10:09:33.368Z,16.13
2017-12-03T10:12:12.980Z,16.20
2017-12-03T10:14:52.121Z,19.43
2017-12-03T10:17:44.273Z,16.33
2017-12-03T10:20:13.442Z,15.50
2017-12-03T10:22:48.066Z,17.77
2017-12-03T10:27:59.393Z,17.20
2017-12-03T10:30:44.840Z,19.33
2017-12-03T10:33:13.974Z,27.70
2017-12-03T10:35:53.524Z,18.53
2017-12-03T10:38:27.108Z,18.27
2017-12-03T10:41:00.862Z,20.90
2017-12-03T10:46:22.892Z,16.30
2017-12-03T10:48:55.614Z,17.10
2017-12-03T10:51:36.207Z,16.87
2017-12-03T11:10:03.669Z,18.53
2017-12-03T11:12:34.945Z,17.63
2017-12-03T11:15:10.721Z,16.53
2017-12-03T11:17:46.644Z,18.43
2017-12-03T11:23:08.842Z,17.40
2017-12-03T11:25:57.381Z,18.73
2017-12-03T11:28:32.462Z,17.50
2017-12-03T11:31:16.762Z,17.17
2017-12-03T11:33:49.955Z,17.50
2017-12-03T11:36:44.807Z,15.90
2017-12-03T11:39:29.464Z,17.10
2017-12-03T11:42:01.472Z,18.80
2017-12-03T11:44:45.165Z,18.27
2017-12-03T11:47:28.742Z,18.53
2017-12-03T11:53:02.012Z,18.00
2017-12-03T11:55:50.268Z,17.57
2017-12-03T12:01:48.557Z,19.63
2017-12-03T12:04:40.035Z,17.33
2017-12-03T12:07:37.983Z,18.20
2017-12-03T12:13:17.849Z,22.47
2017-12-03T12:15:45.412Z,18.17
2017-12-03T12:18:12.889Z,23.30
2017-12-03T12:20:40.450Z,20.40
2017-12-03T12:23:07.917Z,20.63
2017-12-03T12:25:35.384Z,17.93
2017-12-03T12:28:02.884Z,17.33
2017-12-03T12:30:30.358Z,18.43
2017-12-03T12:32:57.835Z,16.77
2017-12-03T12:35:25.377Z,17.60
2017-12-03T12:37:52.845Z,18.37
2017-12-03T12:40:20.321Z,18.17
2017-12-03T12:42:47.804Z,15.67
2017-12-03T12:45:15.278Z,16.53
2017-12-03T12:47:42.750Z,17.67
2017-12-03T12:50:10.236Z,15.90
2017-12-03T12:52:37.725Z,15.30
2017-12-03T12:55:05.240Z,16.03
2017-12-03T12:57:32.730Z,16.30
2017-12-03T13:00:00.257Z,15.37
2017-12-03T13:02:27.784Z,15.27
2017-12-03T13:04:55.260Z,16.60
2017-12-03T13:07:22.740Z,15.13
2017-12-03T13:09:50.209Z,15.67
2017-12-03T13:12:17.747Z,16.70
2017-12-03T13:14:45.222Z,16.80
2017-12-03T13:17:12.694Z,15.60
2017-12-03T13:19:40.222Z,14.83
2017-12-03T13:22:08.417Z,18.00
2017-12-03T13:24:36.846Z,16.37
2017-12-03T13:27:04.336Z,16.07
2017-12-03T13:29:31.852Z,16.43
2017-12-03T13:31:59.333Z,17.07
2017-12-03T13:34:26.825Z,16.83
2017-12-03T13:36:54.292Z,17.50
2017-12-03T13:39:21.766Z,18.80
2017-12-03T13:41:49.269Z,23.63
2017-12-03T13:44:16.737Z,19.77
2017-12-03T13:46:44.213Z,17.70
2017-12-03T13:49:11.697Z,18.73
2017-12-03T13:51:39.167Z,19.37
2017-12-03T13:54:06.639Z,18.57
2017-12-03T13:56:34.133Z,18.53
2017-12-03T13:59:01.643Z,21.50
2017-12-03T14:01:29.089Z,19.43
2017-12-03T14:03:56.581Z,20.93
2017-12-03T14:06:24.047Z,19.93
2017-12-03T14:08:51.525Z,22.53
2017-12-03T14:11:19.141Z,22.73
2017-12-03T14:13:46.610Z,19.63
2017-12-03T14:16:14.456Z,22.73
2017-12-03T14:18:41.926Z,24.53
2017-12-03T14:21:09.421Z,22.57
2017-12-03T14:23:36.893Z,21.53
2017-12-03T14:26:04.388Z,20.17
2017-12-03T14:28:31.856Z,19.57
2017-12-03T14:30:59.348Z,19.37
2017-12-03T14:33:26.822Z,19.37
2017-12-03T14:35:54.313Z,17.70
2017-12-03T14:38:21.781Z,20.97
2017-12-03T14:40:49.272Z,19.57
2017-12-03T14:43:16.745Z,19.23
2017-12-03T14:45:44.707Z,18.83
2017-12-03T14:48:12.185Z,20.20
2017-12-03T14:50:39.665Z,21.13
2017-12-03T14:53:07.137Z,20.90
2017-12-03T14:55:34.623Z,22.37
2017-12-03T14:58:02.876Z,20.70
2017-12-03T15:00:30.362Z,20.57
2017-12-03T15:02:57.832Z,19.00
2017-12-03T15:05:25.316Z,21.17
2017-12-03T15:07:52.785Z,19.43
2017-12-03T15:10:20.273Z,21.90
2017-12-03T15:12:47.744Z,20.40
2017-12-03T15:15:15.224Z,17.40
2017-12-03T15:17:42.715Z,18.03
2017-12-03T15:20:10.186Z,21.40
2017-12-03T15:22:37.649Z,20.27
2017-12-03T15:25:05.133Z,20.57
2017-12-03T15:27:32.655Z,20.50
2017-12-03T15:30:00.109Z,18.60
2017-12-03T15:32:27.604Z,17.30
2017-12-03T15:34:56.004Z,17.13
2017-12-03T15:37:23.850Z,16.70
2017-12-03T15:39:51.339Z,17.87
2017-12-03T15:42:18.805Z,19.27
2017-12-03T15:44:46.277Z,17.37
2017-12-03T15:47:13.765Z,17.97
2017-12-03T15:49:41.242Z,17.33
2017-12-03T15:52:08.715Z,17.67
2017-12-03T15:54:36.209Z,20.73
2017-12-03T15:57:03.685Z,19.77
2017-12-03T15:59:31.157Z,24.00
2017-12-03T16:01:58.678Z,18.87
2017-12-03T16:04:27.419Z,17.00
2017-12-03T16:06:54.914Z,18.30
2017-12-03T16:09:22.384Z,17.90
2017-12-03T16:11:49.872Z,17.00
2017-12-03T16:14:17.345Z,17.43
2017-12-03T16:16:44.816Z,16.63
2017-12-03T16:19:12.300Z,16.67
2017-12-03T16:21:39.778Z,18.40
2017-12-03T16:24:07.249Z,16.50
2017-12-03T16:26:34.745Z,16.83
2017-12-03T16:29:03.356Z,16.77
2017-12-03T16:31:30.829Z,16.17
2017-12-03T16:33:58.340Z,17.33
2017-12-03T16:36:25.818Z,17.17
2017-12-03T16:38:53.292Z,17.33
2017-12-03T16:41:20.781Z,20.70
2017-12-03T16:43:48.246Z,18.30
2017-12-03T16:46:16.423Z,19.57
2017-12-03T16:48:44.841Z,17.50
2017-12-03T16:51:12.313Z,17.30
2017-12-03T16:53:39.776Z,18.17
2017-12-03T16:56:07.261Z,17.43
2017-12-03T16:58:34.733Z,18.67
2017-12-03T17:01:03.014Z,18.43
2017-12-03T17:03:30.521Z,19.17
2017-12-03T17:05:58.001Z,20.27
2017-12-03T17:08:25.484Z,20.87
2017-12-03T17:10:52.965Z,19.73
2017-12-03T17:13:20.457Z,19.47
2017-12-03T17:15:47.952Z,24.07
2017-12-03T17:18:15.451Z,20.57
2017-12-03T17:20:42.930Z,21.80
2017-12-03T17:23:10.436Z,22.77
2017-12-03T17:25:37.913Z,24.77
2017-12-03T17:28:05.412Z,22.30
2017-12-03T17:30:32.883Z,25.80
2017-12-03T17:33:00.377Z,26.17
2017-12-03T17:35:27.856Z,23.70
2017-12-03T17:37:55.349Z,30.70
2017-12-03T17:40:23.773Z,25.37
2017-12-03T17:42:51.259Z,27.43
2017-12-03T17:45:18.741Z,30.23
2017-12-03T17:47:46.225Z,25.27
2017-12-03T17:50:13.721Z,25.53
2017-12-03T17:52:41.188Z,31.23
2017-12-03T17:55:08.678Z,33.10
2017-12-03T17:57:36.204Z,30.87
2017-12-03T18:00:03.682Z,35.73
2017-12-03T18:02:31.220Z,29.50
2017-12-03T18:04:58.781Z,23.90
2017-12-03T18:07:26.260Z,30.87
2017-12-03T18:09:53.748Z,25.80
2017-12-03T18:12:21.301Z,25.23
2017-12-03T18:14:48.985Z,33.43
2017-12-03T18:17:16.458Z,27.77
2017-12-03T18:19:43.959Z,25.23
2017-12-03T18:22:11.432Z,25.80
2017-12-03T18:24:38.914Z,26.33
2017-12-03T18:27:06.393Z,34.93
2017-12-03T18:29:33.888Z,28.73
2017-12-03T18:32:01.469Z,25.53
2017-12-03T18:34:28.957Z,27.17
2017-12-03T18:36:56.497Z,26.93
2017-12-03T18:39:23.985Z,27.83
2017-12-03T18:41:51.600Z,25.63
2017-12-03T18:44:19.165Z,24.83
2017-12-03T18:46:46.965Z,25.43
2017-12-03T18:49:15.049Z,27.00
2017-12-03T18:51:42.533Z,26.13
2017-12-03T18:54:11.108Z,26.77
2017-12-03T18:56:38.574Z,26.37
2017-12-03T18:59:06.155Z,31.00
2017-12-03T19:01:33.692Z,25.07
2017-12-03T19:04:01.129Z,27.20
2017-12-03T19:06:28.601Z,26.87
2017-12-03T19:08:56.085Z,30.33
2017-12-03T19:11:23.552Z,28.93
2017-12-03T19:13:51.849Z,29.70
2017-12-03T19:16:19.312Z,28.33
2017-12-03T19:18:46.805Z,30.30
2017-12-03T19:21:14.273Z,33.17
2017-12-03T19:23:42.544Z,28.37
2017-12-03T19:26:10.009Z,29.93
2017-12-03T19:28:37.494Z,31.10
2017-12-03T19:31:05.061Z,28.63
2017-12-03T19:33:33.241Z,28.17
2017-12-03T19:36:00.739Z,29.40
2017-12-03T19:38:28.240Z,29.23
2017-12-03T19:40:56.561Z,28.57
2017-12-03T19:43:24.045Z,29.83
2017-12-03T19:45:51.532Z,30.73
2017-12-03T19:48:19.155Z,31.00
2017-12-03T19:50:47.019Z,30.60
2017-12-03T19:53:16.682Z,31.87
2017-12-03T19:55:44.217Z,34.37
2017-12-03T19:58:11.697Z,30.53
2017-12-03T20:00:39.173Z,31.03
2017-12-03T20:03:06.751Z,30.83
2017-12-03T20:05:34.225Z,31.33
2017-12-03T20:08:01.709Z,30.87
2017-12-03T20:10:29.182Z,30.20
2017-12-03T20:12:56.650Z,31.17
2017-12-03T20:15:24.136Z,30.53
2017-12-03T20:17:51.607Z,29.97
2017-12-03T20:20:19.080Z,27.53
2017-12-03T20:22:46.564Z,29.57
2017-12-03T20:25:14.108Z,27.63
2017-12-03T20:27:41.572Z,31.00
2017-12-03T20:30:09.064Z,29.23
2017-12-03T20:32:36.970Z,29.93
2017-12-03T20:35:04.528Z,29.53
2017-12-03T20:37:32.076Z,30.13
2017-12-03T20:39:59.557Z,28.73
2017-12-03T20:42:27.028Z,27.50
2017-12-03T20:44:54.518Z,26.30
2017-12-03T20:47:22.341Z,28.17
2017-12-03T20:49:49.837Z,28.80
2017-12-03T20:52:17.325Z,27.30
2017-12-03T20:54:44.788Z,27.47
2017-12-03T20:57:12.269Z,28.80
2017-12-03T20:59:39.737Z,26.20
2017-12-03T21:02:07.225Z,29.27
2017-12-03T21:04:34.692Z,30.50
2017-12-03T21:07:02.201Z,28.03
2017-12-03T21:09:29.673Z,27.83
2017-12-03T21:11:57.162Z,31.73
2017-12-03T21:14:24.655Z,28.63
2017-12-03T21:16:52.356Z,26.90
2017-12-03T21:19:19.857Z,31.07
2017-12-03T21:21:47.328Z,28.23
2017-12-03T21:24:14.805Z,25.47
2017-12-03T21:26:42.289Z,27.27
2017-12-03T21:29:09.789Z,25.80
2017-12-03T21:31:37.280Z,26.97
2017-12-03T21:34:04.774Z,25.10
2017-12-03T21:36:32.308Z,25.87
2017-12-03T21:38:59.743Z,25.17
2017-12-03T21:41:27.240Z,24.13
2017-12-03T21:43:54.725Z,25.20
2017-12-03T21:46:22.202Z,24.47
2017-12-03T21:48:49.692Z,24.00
2017-12-03T21:51:17.512Z,22.63
2017-12-03T21:53:44.984Z,25.07
2017-12-03T21:56:12.481Z,23.00
2017-12-03T21:58:39.985Z,23.90
2017-12-03T22:01:07.452Z,25.70
2017-12-03T22:03:35.733Z,23.37
2017-12-03T22:06:03.214Z,20.90
2017-12-03T22:08:30.705Z,22.43
2017-12-03T22:10:58.188Z,21.37
2017-12-03T22:13:25.664Z,20.53
2017-12-03T22:15:53.152Z,21.90
2017-12-03T22:18:20.850Z,21.90
2017-12-03T22:20:48.317Z,20.47
2017-12-03T22:23:15.801Z,20.83
2017-12-03T22:25:43.272Z,20.57
2017-12-03T22:28:10.741Z,19.40
2017-12-03T22:30:38.238Z,19.17
2017-12-03T22:33:05.713Z,18.23
2017-12-03T22:35:33.181Z,17.77
2017-12-03T22:38:00.717Z,18.67
2017-12-03T22:40:28.188Z,16.73
2017-12-03T22:42:55.664Z,16.73
2017-12-03T22:45:24.144Z,16.57
2017-12-03T22:47:51.647Z,15.80
2017-12-03T22:50:19.120Z,17.80
2017-12-03T22:52:46.605Z,17.57
2017-12-03T22:55:14.100Z,16.87
2017-12-03T22:57:41.582Z,17.27
2017-12-03T23:00:09.121Z,17.07
2017-12-03T23:02:36.593Z,16.27
2017-12-03T23:05:04.061Z,17.30
2017-12-03T23:07:31.589Z,17.07
2017-12-03T23:09:59.061Z,16.53
2017-12-03T23:12:26.531Z,16.43
2017-12-03T23:14:54.022Z,16.70
2017-12-03T23:17:21.493Z,16.73
2017-12-03T23:19:48.993Z,16.50
2017-12-03T23:22:16.464Z,16.20
2017-12-03T23:24:43.953Z,15.63
2017-12-03T23:27:11.432Z,16.10
2017-12-03T23:29:38.936Z,15.77
2017-12-03T23:32:06.408Z,16.43
2017-12-03T23:34:33.892Z,16.27
2017-12-03T23:37:01.381Z,16.40
2017-12-03T23:39:28.864Z,14.47
2017-12-03T23:41:56.344Z,16.10
2017-12-03T23:44:23.839Z,15.60
2017-12-03T23:46:51.312Z,15.90
2017-12-03T23:49:18.807Z,16.10
2017-12-03T23:51:46.276Z,15.30
2017-12-03T23:54:13.769Z,14.63
2017-12-03T23:56:40.528Z,14.97
2017-12-03T23:59:07.997Z,16.10
